Saint Marie, Montana
Current Conditions -  °F | °C
As of 2:53 PM on Sunday 23 Nov 2014 (Local Time) from KGGW Reporting Station
Broken Clouds Broken Clouds  
Wind Chill: 16°   Ceiling: 7500
Heat Index: 27°   Visibility: 10mi
Dew Point: 19°   Wind: 14mph
Humidity: 72%   Direction: 330°NNW
Pressure: 29.81"   Gusts: NA
Location:  48.4°N, 106.55°W
Report Text: KGGW 232153Z AUTO 33012KT 10SM BKN075 M03/M07 A2981 RMK AO2 PK WND 32027/2059 UPB09E13SNE09 SLP125 P0000 T10281072
Loading
Personal Weather Stations






























Interactive Weather Map New forecast layout! Learn more

10-Day Weather Forecast

Advertisements
Track Severe Weather on mobile